Time;durP1;ratioP1;P1;durP2;ratioP2;P2;SDS_P1;SDS_P2;PMS_P1;PMS_P2;Temp;Humidity;BMP_temperature;BMP_pressure;BME280_temperature;BME280_humidity;BME280_pressure;Samples;Min_cycle;Max_cycle;Signal;HPM_P1;HPM_P2
2022/10/19 00:01:45;;;;;;;11.80;8.37;;;12.80;99.90;;;;;;5069255;28;20499;-77
2022/10/19 00:04:11;;;;;;;18.50;9.87;;;12.60;99.90;;;;;;5069114;28;20583;-78
2022/10/19 00:06:37;;;;;;;16.03;10.40;;;12.50;99.90;;;;;;5069285;28;20194;-78
2022/10/19 00:09:13;;;;;;;17.40;10.50;;;12.40;99.90;;;;;;5052698;28;20185;-78
2022/10/19 00:11:44;;;;;;;23.43;13.23;;;12.30;99.90;;;;;;5069054;28;20726;-78
2022/10/19 00:14:14;;;;;;;20.57;13.90;;;12.30;99.90;;;;;;5069130;28;20420;-77
2022/10/19 00:16:40;;;;;;;16.87;12.80;;;12.40;99.90;;;;;;5068884;28;20445;-78
2022/10/19 00:19:12;;;;;;;20.97;12.17;;;12.50;99.90;;;;;;5068403;28;20472;-78
2022/10/19 00:21:38;;;;;;;20.17;12.10;;;12.60;99.90;;;;;;5070328;28;20436;-78
2022/10/19 00:24:05;;;;;;;18.43;10.70;;;12.70;99.90;;;;;;5069634;28;20429;-78
2022/10/19 00:26:30;;;;;;;18.20;12.07;;;12.80;99.90;;;;;;5071359;28;20842;-78
2022/10/19 00:28:56;;;;;;;13.30;8.87;;;12.80;99.90;;;;;;5069312;28;20436;-78
2022/10/19 00:31:24;;;;;;;15.30;9.70;;;12.80;99.90;;;;;;5069525;28;20713;-78
2022/10/19 00:33:50;;;;;;;15.97;9.00;;;12.80;99.90;;;;;;5052399;28;20439;-78
2022/10/19 00:36:23;;;;;;;16.33;9.27;;;12.80;99.90;;;;;;5068943;28;20936;-77
2022/10/19 00:38:49;;;;;;;14.27;9.90;;;12.70;99.90;;;;;;5068906;28;20498;-78
2022/10/19 00:41:16;;;;;;;19.10;10.10;;;12.70;99.90;;;;;;5069569;28;20444;-78
2022/10/19 00:43:50;;;;;;;13.87;9.07;;;12.70;99.90;;;;;;5052809;28;20457;-78
2022/10/19 00:46:16;;;;;;;15.63;9.57;;;12.70;99.90;;;;;;5069390;28;20428;-78
2022/10/19 00:48:42;;;;;;;14.40;8.87;;;12.70;99.90;;;;;;5069593;28;20524;-79
2022/10/19 00:51:08;;;;;;;11.90;7.97;;;12.70;99.90;;;;;;5069052;28;20207;-78
2022/10/19 00:53:34;;;;;;;15.47;9.30;;;12.70;99.90;;;;;;5068546;28;20198;-78
2022/10/19 00:56:05;;;;;;;10.47;8.83;;;12.60;99.90;;;;;;5068221;28;20190;-79
2022/10/19 00:58:31;;;;;;;10.90;8.50;;;12.60;99.90;;;;;;5069112;28;20452;-78
2022/10/19 01:01:00;;;;;;;10.60;8.33;;;12.50;99.90;;;;;;5084504;28;21017;-78
2022/10/19 01:03:26;;;;;;;10.13;7.70;;;12.50;99.90;;;;;;5068067;28;20423;-78
2022/10/19 01:05:52;;;;;;;11.63;8.53;;;12.50;99.90;;;;;;5051290;28;20441;-79
2022/10/19 01:08:18;;;;;;;14.10;8.10;;;12.40;99.90;;;;;;5069260;28;20460;-78
2022/10/19 01:11:25;;;;;;;16.37;8.77;;;12.40;99.90;;;;;;5067952;28;20947;-78
2022/10/19 01:14:21;;;;;;;14.43;8.43;;;12.40;99.90;;;;;;5069633;28;20186;-78
2022/10/19 01:17:11;;;;;;;10.10;8.00;;;12.30;99.90;;;;;;5053506;28;20443;-78
2022/10/19 01:19:49;;;;;;;13.13;8.70;;;12.40;99.90;;;;;;5068965;28;20456;-78
2022/10/19 01:22:42;;;;;;;10.50;7.77;;;12.30;99.90;;;;;;5067582;28;20941;-79
2022/10/19 01:25:48;;;;;;;9.03;7.83;;;12.40;99.90;;;;;;5068989;28;20417;-79
2022/10/19 01:28:37;;;;;;;15.57;9.20;;;12.40;99.90;;;;;;5067435;28;20433;-79
2022/10/19 01:31:06;;;;;;;16.50;8.40;;;12.30;99.90;;;;;;5056615;28;20448;-79
2022/10/19 01:33:48;;;;;;;13.00;8.80;;;12.30;99.90;;;;;;5068879;28;20423;-79
2022/10/19 01:36:38;;;;;;;10.70;9.03;;;12.30;99.90;;;;;;5068061;28;20424;-79
2022/10/19 01:39:24;;;;;;;18.13;10.87;;;12.40;99.90;;;;;;5067331;28;20468;-78
2022/10/19 01:42:20;;;;;;;11.97;9.23;;;12.40;99.90;;;;;;5067359;28;20468;-78
2022/10/19 01:44:53;;;;;;;10.30;8.83;;;12.30;99.90;;;;;;5069173;28;20425;-79
2022/10/19 01:47:33;;;;;;;9.03;7.50;;;12.30;99.90;;;;;;5069496;28;20428;-78
2022/10/19 01:50:39;;;;;;;12.90;8.07;;;12.10;99.90;;;;;;5084657;28;20433;-78
2022/10/19 01:53:09;;;;;;;13.27;8.47;;;12.10;99.90;;;;;;5068816;28;20427;-79
2022/10/19 01:55:38;;;;;;;14.20;9.17;;;12.00;99.90;;;;;;5067218;28;20505;-79
2022/10/19 01:58:07;;;;;;;13.57;8.73;;;11.90;99.90;;;;;;5067017;28;20558;-78
2022/10/19 02:00:36;;;;;;;10.13;7.80;;;11.90;99.90;;;;;;5068498;28;20502;-78
2022/10/19 02:03:04;;;;;;;16.97;8.70;;;11.90;99.90;;;;;;5067063;28;20482;-79
2022/10/19 02:05:32;;;;;;;12.33;8.10;;;11.80;99.90;;;;;;5083936;28;20423;-79
2022/10/19 02:08:10;;;;;;;14.30;9.60;;;11.80;99.90;;;;;;5066939;28;20436;-79
2022/10/19 02:10:38;;;;;;;16.00;9.83;;;11.80;99.90;;;;;;5084074;28;20455;-80
2022/10/19 02:13:06;;;;;;;11.47;8.90;;;11.90;99.90;;;;;;5083438;28;20436;-79
2022/10/19 02:15:35;;;;;;;22.83;9.43;;;11.90;99.90;;;;;;5067114;28;20444;-78
2022/10/19 02:18:02;;;;;;;16.43;9.67;;;12.00;99.90;;;;;;5083625;28;20487;-79
2022/10/19 02:20:28;;;;;;;13.00;9.17;;;12.00;99.90;;;;;;5050436;28;20628;-79
2022/10/19 02:22:54;;;;;;;11.40;8.07;;;12.00;99.90;;;;;;5068630;28;20462;-79
2022/10/19 02:25:20;;;;;;;10.93;8.73;;;11.90;99.90;;;;;;5083747;28;20441;-78
2022/10/19 02:27:46;;;;;;;12.10;7.90;;;12.00;99.90;;;;;;5067098;28;20529;-79
2022/10/19 02:30:15;;;;;;;17.00;9.60;;;11.90;99.90;;;;;;5050107;28;20571;-79
2022/10/19 02:32:42;;;;;;;15.10;9.50;;;11.70;99.90;;;;;;5068369;28;20566;-79
2022/10/19 02:35:09;;;;;;;20.20;8.10;;;11.40;99.90;;;;;;5066676;28;20442;-79
2022/10/19 02:37:34;;;;;;;10.60;7.40;;;11.30;99.90;;;;;;5066917;28;20435;-79
2022/10/19 02:40:00;;;;;;;14.27;9.37;;;11.40;99.90;;;;;;5066727;28;20487;-79
2022/10/19 02:42:45;;;;;;;24.90;9.67;;;11.60;99.90;;;;;;5083703;28;20213;-78
2022/10/19 02:45:26;;;;;;;13.47;8.00;;;11.60;99.90;;;;;;5068311;28;20934;-79
2022/10/19 02:48:03;;;;;;;20.60;10.17;;;11.70;99.90;;;;;;5084704;28;20420;-79
2022/10/19 02:50:30;;;;;;;24.60;10.10;;;11.70;99.90;;;;;;5072373;28;20535;-79
2022/10/19 02:52:58;;;;;;;19.10;10.67;;;11.70;99.90;;;;;;5054163;28;20440;-79
2022/10/19 02:55:24;;;;;;;20.53;10.80;;;11.70;99.90;;;;;;5054243;28;20204;-79
2022/10/19 02:57:49;;;;;;;22.80;12.47;;;11.60;99.90;;;;;;5054090;28;20943;-80
2022/10/19 03:00:15;;;;;;;15.70;10.47;;;11.60;99.90;;;;;;5053494;28;20471;-79
2022/10/19 03:02:41;;;;;;;15.80;9.60;;;11.70;99.90;;;;;;5071831;28;20184;-79
2022/10/19 03:05:08;;;;;;;12.50;8.53;;;11.80;99.90;;;;;;5070694;28;20420;-80
2022/10/19 03:07:34;;;;;;;15.27;8.67;;;11.80;99.90;;;;;;5070561;28;20455;-80
2022/10/19 03:10:00;;;;;;;12.63;9.30;;;11.80;99.90;;;;;;5053619;28;20439;-79
2022/10/19 03:12:25;;;;;;;12.13;8.20;;;11.80;99.90;;;;;;5070444;28;20440;-79
2022/10/19 03:14:51;;;;;;;12.10;7.60;;;11.80;99.90;;;;;;5070261;28;20440;-80
2022/10/19 03:17:17;;;;;;;11.40;8.33;;;11.70;99.90;;;;;;5070042;28;20689;-79
2022/10/19 03:19:43;;;;;;;10.87;8.13;;;11.70;99.90;;;;;;5071284;28;20224;-78
2022/10/19 03:22:08;;;;;;;12.73;8.90;;;11.80;99.90;;;;;;5070082;28;20211;-80
2022/10/19 03:24:34;;;;;;;14.73;9.60;;;11.80;99.90;;;;;;5053684;28;20453;-79
2022/10/19 03:27:00;;;;;;;24.40;10.70;;;11.80;99.90;;;;;;5071864;28;20181;-79
2022/10/19 03:29:25;;;;;;;17.17;11.60;;;11.70;99.90;;;;;;5053812;28;20193;-79
2022/10/19 03:31:51;;;;;;;19.20;11.30;;;11.60;99.90;;;;;;5071723;28;20220;-79
2022/10/19 03:34:17;;;;;;;21.03;12.50;;;11.70;99.90;;;;;;5070918;28;20208;-79
2022/10/19 03:36:44;;;;;;;22.37;11.50;;;11.80;99.90;;;;;;5054003;28;20914;-79
2022/10/19 03:39:13;;;;;;;20.57;11.10;;;11.80;99.90;;;;;;5071091;28;20561;-79
2022/10/19 03:41:39;;;;;;;20.10;11.70;;;11.90;99.90;;;;;;5070861;28;20774;-80
2022/10/19 03:44:06;;;;;;;22.20;12.47;;;12.00;99.90;;;;;;5070721;28;20922;-79
2022/10/19 03:46:34;;;;;;;16.80;10.60;;;12.00;99.90;;;;;;5070869;28;20414;-79
2022/10/19 03:49:00;;;;;;;17.20;11.30;;;11.90;99.90;;;;;;5071128;28;20416;-79
2022/10/19 03:51:27;;;;;;;19.17;10.70;;;12.00;99.90;;;;;;5070928;28;20458;-80
2022/10/19 03:53:55;;;;;;;15.60;10.50;;;12.00;99.90;;;;;;5071324;28;20521;-80
2022/10/19 03:56:23;;;;;;;20.33;11.37;;;12.10;99.90;;;;;;5073074;28;20416;-80
2022/10/19 03:58:50;;;;;;;18.80;11.20;;;12.00;99.90;;;;;;5053884;28;20459;-79
2022/10/19 04:01:18;;;;;;;14.77;9.30;;;12.10;99.90;;;;;;5070369;28;20490;-80
2022/10/19 04:03:45;;;;;;;19.93;10.80;;;12.20;99.90;;;;;;5070635;28;20443;-80
2022/10/19 04:06:16;;;;;;;15.30;10.20;;;12.30;99.90;;;;;;5070118;28;20424;-80
2022/10/19 04:08:43;;;;;;;15.40;9.23;;;12.40;99.90;;;;;;5053849;28;20518;-80
2022/10/19 04:11:13;;;;;;;12.10;8.73;;;12.50;99.90;;;;;;5069701;28;20451;-80
2022/10/19 04:13:38;;;;;;;20.63;11.00;;;12.50;99.90;;;;;;5086134;28;20926;-79
2022/10/19 04:16:05;;;;;;;16.03;9.73;;;12.40;99.90;;;;;;5070027;28;20443;-80
2022/10/19 04:18:31;;;;;;;14.57;10.50;;;12.40;99.90;;;;;;5069651;28;20432;-80
2022/10/19 04:20:58;;;;;;;16.53;10.23;;;12.30;99.90;;;;;;5052960;28;20901;-80
2022/10/19 04:23:29;;;;;;;15.83;10.00;;;12.10;99.90;;;;;;5069226;28;20517;-80
2022/10/19 04:26:04;;;;;;;38.40;11.27;;;12.00;99.90;;;;;;5069349;28;20436;-80
2022/10/19 04:28:29;;;;;;;77.57;11.90;;;11.90;99.90;;;;;;5052492;28;21082;-80
2022/10/19 04:30:56;;;;;;;240.40;14.07;;;11.80;99.90;;;;;;5070314;28;20561;-80
2022/10/19 04:33:22;;;;;;;181.80;12.50;;;11.70;99.90;;;;;;5052595;28;20600;-79
2022/10/19 04:35:47;;;;;;;169.23;12.30;;;11.70;99.90;;;;;;5068428;28;20441;-80
2022/10/19 04:38:13;;;;;;;213.67;14.47;;;11.60;99.90;;;;;;5050967;28;20425;-78
2022/10/19 04:40:39;;;;;;;234.40;14.50;;;11.50;99.90;;;;;;5050303;28;20234;-79
2022/10/19 04:43:05;;;;;;;212.50;12.87;;;11.50;99.90;;;;;;5050932;28;20193;-80
2022/10/19 04:45:31;;;;;;;345.27;15.37;;;11.40;99.90;;;;;;5067170;28;20197;-77
2022/10/19 04:47:56;;;;;;;254.87;13.70;;;11.30;99.90;;;;;;5067169;28;20459;-80
2022/10/19 04:50:23;;;;;;;49.70;9.07;;;11.30;99.90;;;;;;5067578;28;20480;-77
2022/10/19 04:52:48;;;;;;;162.23;9.80;;;11.30;99.90;;;;;;5067695;28;20197;-79
2022/10/19 04:55:14;;;;;;;23.07;6.40;;;11.20;99.90;;;;;;5050904;28;20957;-78
2022/10/19 04:57:40;;;;;;;86.57;11.20;;;11.30;99.90;;;;;;5067252;28;20220;-80
2022/10/19 05:00:06;;;;;;;38.37;9.27;;;11.20;99.90;;;;;;5067039;28;20683;-79
2022/10/19 05:02:32;;;;;;;15.17;9.13;;;11.10;99.90;;;;;;5066905;28;20619;-79
2022/10/19 05:04:57;;;;;;;21.23;11.60;;;11.00;99.90;;;;;;5066969;28;20435;-78
2022/10/19 05:07:23;;;;;;;15.10;10.17;;;11.10;99.90;;;;;;5051016;28;20185;-80
2022/10/19 05:09:50;;;;;;;16.50;9.83;;;11.30;99.90;;;;;;5049689;28;20288;-80
2022/10/19 05:12:16;;;;;;;17.00;10.57;;;11.50;99.90;;;;;;5066703;28;20205;-80
2022/10/19 05:14:41;;;;;;;22.73;12.80;;;11.70;99.90;;;;;;5049521;28;20432;-80
2022/10/19 05:17:07;;;;;;;22.30;12.20;;;11.80;99.90;;;;;;5049471;28;20194;-80
2022/10/19 05:19:33;;;;;;;21.87;13.57;;;11.90;99.90;;;;;;5066239;28;20221;-80
2022/10/19 05:21:58;;;;;;;24.00;13.23;;;12.10;99.90;;;;;;5066348;28;20676;-80
2022/10/19 05:24:24;;;;;;;24.27;12.23;;;12.20;99.90;;;;;;5050203;28;20193;-80
2022/10/19 05:26:50;;;;;;;21.20;11.90;;;12.30;99.90;;;;;;5051047;28;20188;-81
2022/10/19 05:29:15;;;;;;;21.63;12.60;;;12.40;99.90;;;;;;5051037;28;20543;-80
2022/10/19 05:31:41;;;;;;;19.20;11.37;;;12.40;99.90;;;;;;5067477;28;20211;-80
2022/10/19 05:34:07;;;;;;;23.90;11.23;;;12.10;99.90;;;;;;5050127;28;20764;-78
2022/10/19 05:36:35;;;;;;;22.60;10.13;;;11.80;99.90;;;;;;5066857;28;20436;-79
2022/10/19 05:39:05;;;;;;;18.77;8.93;;;11.70;99.90;;;;;;5068256;28;20708;-78
2022/10/19 05:41:31;;;;;;;141.23;11.70;;;11.40;99.90;;;;;;5067487;28;20450;-79
2022/10/19 05:43:59;;;;;;;215.43;11.90;;;11.30;99.90;;;;;;5066139;28;21044;-80
2022/10/19 05:46:26;;;;;;;34.10;8.30;;;11.20;99.90;;;;;;5067002;28;20499;-80
2022/10/19 05:48:53;;;;;;;36.90;7.87;;;11.10;99.90;;;;;;5067088;28;20463;-81
2022/10/19 05:51:20;;;;;;;28.50;5.73;;;11.10;99.90;;;;;;5083219;28;20458;-81
2022/10/19 05:53:46;;;;;;;94.73;8.30;;;11.10;99.90;;;;;;5066167;28;20461;-81
2022/10/19 05:56:21;;;;;;;117.30;9.70;;;10.90;99.90;;;;;;5049262;28;20473;-81
2022/10/19 05:58:47;;;;;;;57.00;7.80;;;10.90;99.90;;;;;;5065639;28;20205;-80
2022/10/19 06:01:14;;;;;;;26.90;5.97;;;10.90;99.90;;;;;;5050060;28;20573;-81
2022/10/19 06:03:40;;;;;;;13.93;6.50;;;10.90;99.90;;;;;;5068153;28;20860;-81
2022/10/19 06:06:07;;;;;;;14.43;6.70;;;11.00;99.90;;;;;;5066827;28;20847;-81
2022/10/19 06:08:34;;;;;;;30.10;7.30;;;11.00;99.90;;;;;;5082752;28;20433;-81
2022/10/19 06:11:10;;;;;;;8.00;7.17;;;11.00;99.90;;;;;;5082554;28;20967;-80
2022/10/19 06:13:37;;;;;;;11.40;6.30;;;11.10;99.90;;;;;;5066033;28;20484;-79
2022/10/19 06:16:04;;;;;;;17.53;6.70;;;11.20;99.90;;;;;;5049216;28;20946;-80
2022/10/19 06:18:30;;;;;;;49.80;7.63;;;11.30;99.90;;;;;;5082669;28;20460;-80
2022/10/19 06:21:01;;;;;;;47.23;7.70;;;11.40;99.90;;;;;;5082904;28;21089;-79
2022/10/19 06:23:27;;;;;;;8.37;6.43;;;11.40;99.90;;;;;;5066433;28;20192;-80
2022/10/19 06:25:52;;;;;;;8.73;5.90;;;11.40;99.90;;;;;;5066515;28;20625;-80
2022/10/19 06:28:18;;;;;;;7.77;6.47;;;11.50;99.90;;;;;;5066624;28;20185;-80
2022/10/19 06:30:43;;;;;;;10.00;7.00;;;11.50;99.90;;;;;;5066283;28;20209;-81
2022/10/19 06:33:09;;;;;;;11.10;6.70;;;11.60;99.90;;;;;;5066469;28;20279;-80
2022/10/19 06:35:35;;;;;;;16.33;9.90;;;11.70;99.90;;;;;;5066371;28;20256;-80
2022/10/19 06:38:01;;;;;;;13.70;9.20;;;11.70;99.90;;;;;;5066031;28;20191;-80
2022/10/19 06:40:26;;;;;;;14.90;9.90;;;11.80;99.90;;;;;;5033352;28;20226;-80
2022/10/19 06:42:54;;;;;;;13.83;10.00;;;11.90;99.90;;;;;;5067128;28;20189;-80
2022/10/19 06:45:20;;;;;;;20.37;11.13;;;12.00;99.90;;;;;;5049182;28;20575;-83
2022/10/19 06:47:45;;;;;;;19.03;10.50;;;12.10;99.90;;;;;;5066860;28;20432;-80
2022/10/19 06:50:11;;;;;;;18.50;10.50;;;12.20;99.90;;;;;;5049080;28;20210;-81
2022/10/19 06:52:39;;;;;;;15.20;10.03;;;12.20;99.90;;;;;;5067070;28;20210;-79
2022/10/19 06:55:05;;;;;;;14.20;9.40;;;12.30;99.90;;;;;;5049515;28;20280;-79
2022/10/19 06:57:31;;;;;;;10.90;8.30;;;12.40;99.90;;;;;;5067509;28;20429;-79
2022/10/19 06:59:57;;;;;;;10.53;8.57;;;12.50;99.90;;;;;;5065933;28;20539;-80
2022/10/19 07:02:22;;;;;;;14.33;8.63;;;12.40;99.90;;;;;;5049520;28;20246;-80
2022/10/19 07:04:48;;;;;;;14.07;9.77;;;12.40;99.90;;;;;;5066102;28;20194;-80
2022/10/19 07:07:14;;;;;;;15.07;9.97;;;12.40;99.90;;;;;;5065722;28;20239;-80
2022/10/19 07:09:40;;;;;;;17.43;9.50;;;12.20;99.90;;;;;;5066842;28;20586;-82
2022/10/19 07:12:05;;;;;;;16.40;9.00;;;12.10;99.90;;;;;;5064978;28;20730;-80
2022/10/19 07:14:37;;;;;;;13.00;9.57;;;12.20;99.90;;;;;;5048655;28;20201;-80
2022/10/19 07:17:03;;;;;;;11.40;8.10;;;12.30;99.90;;;;;;5065770;28;20305;-80
2022/10/19 07:19:29;;;;;;;15.63;8.63;;;12.30;99.90;;;;;;5064799;28;20471;-79
2022/10/19 07:21:55;;;;;;;11.00;7.87;;;12.40;99.90;;;;;;5065030;28;20451;-79
2022/10/19 07:24:21;;;;;;;9.90;8.40;;;12.60;99.90;;;;;;5064839;28;20190;-80
2022/10/19 07:26:47;;;;;;;11.10;8.10;;;12.70;99.90;;;;;;5081266;28;20237;-80
2022/10/19 07:29:13;;;;;;;10.67;8.50;;;12.80;99.90;;;;;;5048493;28;20441;-80
2022/10/19 07:31:38;;;;;;;17.87;11.00;;;12.90;99.90;;;;;;5048303;28;20211;-80
2022/10/19 07:34:04;;;;;;;13.03;10.93;;;13.00;99.90;;;;;;5048456;28;20732;-80
2022/10/19 07:36:33;;;;;;;15.93;10.27;;;13.10;99.90;;;;;;5068175;28;20185;-80
2022/10/19 07:39:05;;;;;;;16.20;10.53;;;13.20;99.90;;;;;;5051870;28;21014;-80
2022/10/19 07:41:31;;;;;;;11.40;8.60;;;13.20;99.90;;;;;;5051503;28;20505;-80
2022/10/19 07:43:57;;;;;;;14.60;10.03;;;13.30;99.90;;;;;;5068382;28;20437;-80
2022/10/19 07:46:25;;;;;;;12.47;9.33;;;13.40;99.90;;;;;;5068048;28;20437;-80
2022/10/19 07:48:51;;;;;;;10.20;8.10;;;13.50;99.90;;;;;;5068587;28;20425;-80
2022/10/19 07:51:18;;;;;;;14.20;8.83;;;13.60;99.90;;;;;;5068218;28;20453;-80
2022/10/19 07:53:44;;;;;;;10.27;8.30;;;13.70;99.90;;;;;;5067809;28;20322;-80
2022/10/19 07:56:13;;;;;;;11.33;7.90;;;13.70;99.90;;;;;;5084995;28;20503;-79
2022/10/19 07:58:39;;;;;;;11.70;7.77;;;13.80;99.90;;;;;;5084798;28;20461;-79
2022/10/19 08:01:09;;;;;;;13.90;11.10;;;13.90;99.90;;;;;;5067977;28;20488;-81
2022/10/19 08:03:36;;;;;;;12.33;9.87;;;14.00;99.90;;;;;;5068319;28;20451;-79
2022/10/19 08:06:04;;;;;;;8.77;7.57;;;14.10;99.90;;;;;;5085383;28;20490;-79
2022/10/19 08:08:30;;;;;;;7.80;6.97;;;14.10;99.90;;;;;;5068168;28;20425;-79
2022/10/19 08:10:56;;;;;;;11.30;7.37;;;14.20;99.90;;;;;;5067780;28;20451;-79
2022/10/19 08:13:23;;;;;;;11.07;7.87;;;14.20;99.90;;;;;;5067603;28;20575;-79
2022/10/19 08:15:49;;;;;;;8.70;7.13;;;14.30;99.90;;;;;;5068827;28;20428;-79
2022/10/19 08:18:15;;;;;;;12.60;8.67;;;14.30;99.90;;;;;;5067565;28;20874;-79
2022/10/19 08:20:43;;;;;;;11.53;9.17;;;14.30;99.90;;;;;;5067306;28;20513;-77
2022/10/19 08:23:09;;;;;;;11.03;8.60;;;14.30;99.90;;;;;;5067622;28;20433;-80
2022/10/19 08:25:36;;;;;;;13.00;9.90;;;14.40;99.90;;;;;;5068859;28;20980;-78
2022/10/19 08:28:02;;;;;;;12.90;10.03;;;14.50;99.90;;;;;;5050621;28;20436;-79
2022/10/19 08:30:28;;;;;;;13.47;10.53;;;14.50;99.90;;;;;;5050973;28;20445;-78
2022/10/19 08:32:53;;;;;;;16.40;11.90;;;14.60;99.90;;;;;;5067471;28;20944;-77
2022/10/19 08:35:20;;;;;;;15.47;11.40;;;14.60;99.90;;;;;;5069068;28;20673;-80
2022/10/19 08:37:46;;;;;;;3.73;3.43;;;14.60;99.90;;;;;;5067407;28;20210;-79
2022/10/19 08:40:21;;;;;;;3.70;2.93;;;14.70;99.90;;;;;;5068802;28;20493;-79
2022/10/19 08:42:57;;;;;;;6.93;2.87;;;14.80;99.90;;;;;;5069129;28;20179;-79
2022/10/19 08:45:33;;;;;;;3.00;2.37;;;14.90;99.90;;;;;;5067289;28;20417;-80
2022/10/19 08:48:14;;;;;;;3.90;3.30;;;14.90;99.90;;;;;;5067655;28;20512;-79
2022/10/19 08:50:43;;;;;;;2.93;2.17;;;15.10;99.90;;;;;;5068844;28;20442;-79
2022/10/19 08:53:41;;;;;;;2.83;2.53;;;15.10;99.90;;;;;;5067117;28;20435;-79
2022/10/19 08:56:15;;;;;;;12.37;2.83;;;15.10;99.90;;;;;;5044832;28;20458;-79
2022/10/19 08:59:05;;;;;;;6.80;4.07;;;15.20;99.90;;;;;;5068374;28;20951;-79
2022/10/19 09:01:43;;;;;;;4.50;3.77;;;15.30;99.90;;;;;;5066526;28;20454;-79
2022/10/19 09:04:20;;;;;;;2.40;2.20;;;15.40;99.90;;;;;;5066948;28;20516;-79
2022/10/19 09:07:08;;;;;;;2.60;2.13;;;15.40;99.90;;;;;;5083574;28;20445;-78
2022/10/19 09:09:43;;;;;;;2.10;1.90;;;15.50;99.90;;;;;;5066609;28;20426;-79
2022/10/19 09:12:15;;;;;;;2.40;2.00;;;15.70;99.90;;;;;;5083993;28;20471;-80
2022/10/19 09:14:56;;;;;;;4.60;2.10;;;15.60;99.90;;;;;;5067143;28;20494;-80
2022/10/19 09:17:24;;;;;;;7.93;2.33;;;15.80;99.90;;;;;;5083983;28;20424;-80
2022/10/19 09:19:50;;;;;;;9.57;5.70;;;15.90;99.90;;;;;;5066914;28;20470;-80
2022/10/19 09:22:33;;;;;;;7.00;5.17;;;16.00;99.90;;;;;;5067994;28;20505;-80
2022/10/19 09:25:13;;;;;;;6.40;3.43;;;15.90;99.90;;;;;;5083394;28;20423;-79
2022/10/19 09:27:43;;;;;;;7.07;6.03;;;16.00;99.90;;;;;;5068467;28;20414;-79
2022/10/19 09:30:19;;;;;;;11.50;7.00;;;16.10;99.90;;;;;;5083960;28;20455;-79
2022/10/19 09:32:45;;;;;;;9.30;5.97;;;16.10;99.90;;;;;;5066746;28;20421;-79
2022/10/19 09:35:37;;;;;;;9.97;6.60;;;16.10;99.90;;;;;;5066069;28;20442;-79
2022/10/19 09:38:06;;;;;;;7.70;6.20;;;16.10;99.90;;;;;;5067585;28;20410;-77
2022/10/19 09:40:35;;;;;;;8.83;6.93;;;16.10;99.90;;;;;;5065717;28;20903;-79
2022/10/19 09:43:18;;;;;;;13.90;9.90;;;16.20;99.90;;;;;;5065634;28;20939;-78
2022/10/19 09:46:07;;;;;;;15.47;7.47;;;16.20;99.90;;;;;;5067703;28;20930;-78
2022/10/19 09:48:51;;;;;;;7.27;6.17;;;16.30;99.90;;;;;;5067548;28;20455;-79
2022/10/19 09:51:18;;;;;;;7.93;5.37;;;16.40;99.90;;;;;;5067779;28;20566;-79
2022/10/19 09:53:52;;;;;;;5.20;4.70;;;16.40;99.90;;;;;;5067031;28;20430;-79
2022/10/19 09:56:20;;;;;;;5.00;3.50;;;16.40;99.90;;;;;;5050045;28;20441;-79
2022/10/19 09:58:53;;;;;;;3.80;3.47;;;16.50;99.90;;;;;;5082163;28;20442;-78
2022/10/19 10:01:36;;;;;;;3.33;3.03;;;16.50;99.90;;;;;;5064864;28;20578;-78
2022/10/19 10:04:14;;;;;;;6.77;4.93;;;16.80;99.90;;;;;;5068111;28;20464;-78
2022/10/19 10:06:41;;;;;;;8.20;5.90;;;16.80;99.90;;;;;;5067320;28;20439;-79
2022/10/19 10:09:17;;;;;;;4.30;3.73;;;16.70;99.90;;;;;;5067557;28;20424;-78
2022/10/19 10:11:46;;;;;;;3.40;3.07;;;16.70;99.90;;;;;;5068893;28;20478;-78
2022/10/19 10:14:24;;;;;;;3.60;2.73;;;16.80;99.90;;;;;;5065819;28;20506;-78
2022/10/19 10:17:15;;;;;;;4.20;3.17;;;16.80;99.90;;;;;;5080186;28;20466;-79
2022/10/19 10:19:56;;;;;;;7.67;5.50;;;17.00;99.90;;;;;;5081980;28;20476;-79
2022/10/19 10:22:31;;;;;;;9.37;4.40;;;17.00;99.90;;;;;;5066781;28;20412;-79
2022/10/19 10:24:57;;;;;;;7.37;4.13;;;16.90;99.90;;;;;;5066855;28;20411;-78
2022/10/19 10:27:35;;;;;;;6.07;4.40;;;17.00;99.90;;;;;;5065222;28;20435;-78
2022/10/19 10:30:14;;;;;;;4.63;4.10;;;17.10;99.90;;;;;;5082044;28;20200;-78
2022/10/19 10:32:47;;;;;;;4.50;4.10;;;17.00;99.90;;;;;;5066524;28;20430;-79
2022/10/19 10:35:21;;;;;;;9.57;5.13;;;16.90;99.90;;;;;;5065313;28;20467;-78
2022/10/19 10:37:48;;;;;;;12.50;4.67;;;16.80;99.90;;;;;;5065102;28;20436;-78
2022/10/19 10:40:31;;;;;;;8.20;5.43;;;16.80;99.90;;;;;;5066577;28;20466;-78
2022/10/19 10:43:18;;;;;;;6.40;4.20;;;16.90;99.90;;;;;;5066780;28;20423;-78
2022/10/19 10:45:51;;;;;;;6.47;5.20;;;16.90;99.90;;;;;;5065681;28;20504;-78
2022/10/19 10:48:43;;;;;;;4.20;3.90;;;16.90;99.90;;;;;;5065406;28;20511;-77
2022/10/19 10:51:41;;;;;;;7.23;4.13;;;16.90;99.90;;;;;;5081929;28;20450;-78
2022/10/19 10:54:22;;;;;;;8.60;4.57;;;16.80;99.90;;;;;;5066526;28;20467;-78
2022/10/19 10:57:08;;;;;;;6.23;5.17;;;16.80;99.90;;;;;;5048928;28;20442;-78
2022/10/19 11:00:09;;;;;;;8.40;5.60;;;16.80;99.90;;;;;;5066401;28;20469;-78
2022/10/19 11:03:00;;;;;;;10.10;5.17;;;16.70;99.90;;;;;;5082066;28;20752;-78
2022/10/19 11:05:40;;;;;;;5.93;5.27;;;16.60;99.90;;;;;;5064914;28;20474;-78
2022/10/19 11:08:22;;;;;;;9.60;5.17;;;16.60;99.90;;;;;;5065021;28;20801;-78
2022/10/19 11:10:59;;;;;;;7.00;5.37;;;16.70;99.90;;;;;;5070260;28;20879;-77
2022/10/19 11:13:40;;;;;;;8.30;5.00;;;16.70;99.90;;;;;;5068838;28;20432;-77
2022/10/19 11:16:11;;;;;;;8.13;5.50;;;16.90;99.90;;;;;;5085431;28;20415;-79
2022/10/19 11:18:45;;;;;;;9.03;5.10;;;16.70;99.90;;;;;;5068837;28;20457;-77
2022/10/19 11:21:32;;;;;;;10.27;5.53;;;16.80;99.90;;;;;;5070034;28;20470;-78
2022/10/19 11:24:09;;;;;;;16.40;5.83;;;16.90;99.90;;;;;;5069556;28;20427;-78
2022/10/19 11:26:38;;;;;;;13.53;6.43;;;16.90;99.90;;;;;;5068623;28;21002;-78
2022/10/19 11:29:32;;;;;;;6.43;5.37;;;17.00;99.90;;;;;;5069937;28;20438;-79
2022/10/19 11:31:59;;;;;;;11.83;8.43;;;17.00;99.90;;;;;;5068055;28;21002;-79
2022/10/19 11:34:35;;;;;;;12.70;9.00;;;17.10;99.90;;;;;;5085014;28;20970;-80
2022/10/19 11:37:31;;;;;;;13.73;9.47;;;17.10;99.90;;;;;;5070189;28;20419;-80
2022/10/19 11:40:17;;;;;;;11.30;8.83;;;17.00;99.90;;;;;;5068678;28;20507;-79
2022/10/19 11:42:48;;;;;;;11.97;8.77;;;17.00;99.90;;;;;;5069829;28;20551;-78
2022/10/19 11:45:32;;;;;;;13.10;9.10;;;16.90;99.90;;;;;;5068689;28;20424;-78
2022/10/19 11:48:33;;;;;;;12.93;8.73;;;16.90;99.90;;;;;;5068613;28;20431;-78
2022/10/19 11:51:17;;;;;;;15.27;10.30;;;16.80;99.90;;;;;;5069399;28;20440;-79
2022/10/19 11:53:53;;;;;;;16.47;9.90;;;16.70;99.90;;;;;;5067958;28;20543;-78
2022/10/19 11:56:29;;;;;;;13.03;10.17;;;16.40;99.90;;;;;;5084758;28;20642;-79
2022/10/19 11:59:30;;;;;;;13.57;10.80;;;16.20;99.90;;;;;;5067487;28;20443;-78
2022/10/19 12:02:14;;;;;;;16.60;11.90;;;16.00;99.90;;;;;;5067688;28;21039;-77
2022/10/19 12:04:40;;;;;;;13.87;11.17;;;15.80;99.90;;;;;;5068745;28;20418;-77
2022/10/19 12:07:21;;;;;;;16.50;10.37;;;15.80;99.90;;;;;;5068711;28;20915;-79
2022/10/19 12:10:17;;;;;;;13.50;10.20;;;16.00;99.90;;;;;;5069897;28;20181;-79
2022/10/19 12:12:48;;;;;;;13.70;10.30;;;16.20;99.90;;;;;;5069207;28;20416;-78
2022/10/19 12:15:40;;;;;;;11.60;9.67;;;16.30;99.90;;;;;;5069461;28;20408;-78
2022/10/19 12:18:35;;;;;;;12.53;9.03;;;16.40;99.90;;;;;;5080011;28;20435;-79
2022/10/19 12:21:13;;;;;;;13.03;8.90;;;16.50;99.90;;;;;;5068930;28;20916;-76
2022/10/19 12:23:42;;;;;;;11.07;9.23;;;16.50;99.90;;;;;;5069852;28;20433;-78
2022/10/19 12:26:13;;;;;;;13.47;10.47;;;16.70;99.90;;;;;;5084574;28;20792;-78
2022/10/19 12:29:05;;;;;;;14.27;10.60;;;16.60;99.90;;;;;;5068202;28;20431;-78
2022/10/19 12:31:32;;;;;;;11.10;9.77;;;16.60;99.90;;;;;;5057764;28;20439;-77
2022/10/19 12:34:15;;;;;;;12.53;9.70;;;16.60;99.90;;;;;;5068170;28;20445;-78
2022/10/19 12:37:06;;;;;;;10.67;8.80;;;16.70;99.90;;;;;;5068121;28;20433;-77
2022/10/19 12:39:52;;;;;;;10.33;9.17;;;16.50;99.90;;;;;;5069288;28;20943;-79
2022/10/19 12:42:27;;;;;;;10.23;9.10;;;16.40;99.90;;;;;;5069687;28;20954;-79
2022/10/19 12:45:09;;;;;;;13.37;8.93;;;16.50;99.90;;;;;;5067369;28;20938;-78
2022/10/19 12:47:34;;;;;;;8.73;7.87;;;16.50;99.90;;;;;;5067099;28;20430;-78
2022/10/19 12:50:02;;;;;;;9.27;8.20;;;16.60;99.90;;;;;;5067210;28;20434;-78
2022/10/19 12:52:49;;;;;;;16.20;11.47;;;16.60;99.90;;;;;;5068866;28;20188;-78
2022/10/19 12:55:15;;;;;;;11.73;9.30;;;16.60;99.90;;;;;;5051000;28;20434;-77
2022/10/19 12:57:47;;;;;;;9.57;8.00;;;16.60;99.90;;;;;;5067957;28;20432;-79
2022/10/19 13:00:24;;;;;;;14.03;9.73;;;16.60;99.90;;;;;;5068967;28;20262;-78